createdAt,value
2022-11-28T00:00:01.984Z,100343.47
2022-11-28T00:02:31.989Z,100363.53
2022-11-28T00:05:01.861Z,100336.00
2022-11-28T00:07:31.787Z,100352.22
2022-11-28T00:10:02.109Z,100345.91
2022-11-28T00:12:33.237Z,100347.78
2022-11-28T00:15:06.663Z,100355.38
2022-11-28T00:17:36.946Z,100348.41
2022-11-28T00:20:08.193Z,100351.63
2022-11-28T00:22:38.149Z,100349.72
2022-11-28T00:25:08.838Z,100349.06
2022-11-28T00:27:38.815Z,100351.75
2022-11-28T00:30:11.265Z,100315.19
2022-11-28T00:32:41.132Z,100344.97
2022-11-28T00:35:11.861Z,100347.53
2022-11-28T00:37:41.686Z,100343.91
2022-11-28T00:40:12.174Z,100340.81
2022-11-28T00:42:43.350Z,100340.56
2022-11-28T00:45:14.588Z,100340.28
2022-11-28T00:47:44.376Z,100338.41
2022-11-28T00:50:15.429Z,100345.31
2022-11-28T00:52:45.415Z,100331.84
2022-11-28T00:55:15.225Z,100330.00
2022-11-28T00:57:45.001Z,100329.34
2022-11-28T01:00:17.454Z,100329.91
2022-11-28T01:02:47.480Z,100328.38
2022-11-28T01:05:17.583Z,100325.44
2022-11-28T01:07:47.723Z,100322.03
2022-11-28T01:10:17.786Z,100314.19
2022-11-28T01:12:49.202Z,100317.66
2022-11-28T01:15:20.798Z,100319.91
2022-11-28T01:17:50.524Z,100321.66
2022-11-28T01:20:20.275Z,100320.69
2022-11-28T01:22:50.359Z,100311.81
2022-11-28T01:25:20.108Z,100308.72
2022-11-28T01:27:50.235Z,100295.38
2022-11-28T01:30:21.441Z,100294.84
2022-11-28T01:32:51.310Z,100293.34
2022-11-28T01:35:21.198Z,100288.38
2022-11-28T01:37:51.023Z,100300.13
2022-11-28T01:40:21.088Z,100299.66
2022-11-28T01:42:50.879Z,100295.72
2022-11-28T01:45:25.257Z,100291.34
2022-11-28T01:47:57.824Z,100287.63
2022-11-28T01:50:29.774Z,100285.16
2022-11-28T01:53:04.667Z,100283.72
2022-11-28T01:55:44.378Z,100265.75
2022-11-28T01:58:14.444Z,100284.31
2022-11-28T02:00:49.979Z,100281.72
2022-11-28T02:03:25.985Z,100283.06
2022-11-28T02:05:56.858Z,100282.22
2022-11-28T02:08:26.652Z,100278.59
2022-11-28T02:11:13.210Z,100264.63
2022-11-28T02:13:54.465Z,100285.50
2022-11-28T02:16:49.081Z,100283.97
2022-11-28T02:19:43.685Z,100290.25
2022-11-28T02:22:21.524Z,100280.50
2022-11-28T02:25:03.788Z,100280.63
2022-11-28T02:27:54.158Z,100275.94
2022-11-28T02:30:30.435Z,100281.72
2022-11-28T02:33:23.564Z,100268.91
2022-11-28T02:36:03.838Z,100226.94
2022-11-28T02:38:47.614Z,100277.19
2022-11-28T02:41:25.475Z,100274.22
2022-11-28T02:44:04.162Z,100274.56
2022-11-28T02:46:42.460Z,100273.47
2022-11-28T02:49:20.791Z,100279.03
2022-11-28T02:51:57.104Z,100277.78
2022-11-28T02:54:28.448Z,100280.63
2022-11-28T02:56:58.283Z,100280.34
2022-11-28T02:59:35.257Z,100274.66
2022-11-28T03:02:07.075Z,100278.03
2022-11-28T03:04:48.917Z,100276.41
2022-11-28T03:07:30.641Z,100266.88
2022-11-28T03:10:14.994Z,100272.09
2022-11-28T03:12:59.126Z,100270.97
2022-11-28T03:15:38.944Z,100268.75
2022-11-28T03:18:15.015Z,100269.09
2022-11-28T03:20:49.542Z,100247.84
2022-11-28T03:23:22.795Z,100264.16
2022-11-28T03:26:00.332Z,100269.81
2022-11-28T03:28:40.615Z,100265.94
2022-11-28T03:31:17.017Z,100263.34
2022-11-28T03:33:48.454Z,100263.94
2022-11-28T03:36:23.238Z,100252.09
2022-11-28T03:38:57.890Z,100266.88
2022-11-28T03:41:33.962Z,100261.59
2022-11-28T03:44:08.381Z,100261.41
2022-11-28T03:46:42.878Z,100269.19
2022-11-28T03:49:17.019Z,100269.84
2022-11-28T03:51:53.035Z,100260.88
2022-11-28T03:54:29.140Z,100258.16
2022-11-28T03:57:08.675Z,100256.13
2022-11-28T03:59:44.482Z,100269.00
2022-11-28T04:02:21.823Z,100273.94
2022-11-28T04:05:00.710Z,100255.84
2022-11-28T04:07:41.182Z,100265.84
2022-11-28T04:10:17.810Z,100273.72
2022-11-28T04:12:59.848Z,100266.34
2022-11-28T04:15:38.778Z,100278.06
2022-11-28T04:18:20.881Z,100281.91
2022-11-28T04:20:54.874Z,100270.66
2022-11-28T04:23:28.416Z,100284.56
2022-11-28T04:26:07.361Z,100278.59
2022-11-28T04:28:39.003Z,100271.16
2022-11-28T04:31:11.140Z,100276.13
2022-11-28T04:33:45.737Z,100283.28
2022-11-28T04:36:20.723Z,100264.00
2022-11-28T04:38:56.413Z,100281.00
2022-11-28T04:41:33.923Z,100272.78
2022-11-28T04:44:11.311Z,100267.56
2022-11-28T04:46:44.518Z,100280.41
2022-11-28T04:49:14.572Z,100286.19
2022-11-28T04:51:50.026Z,100299.53
2022-11-28T04:54:27.920Z,100305.66
2022-11-28T04:57:02.586Z,100255.09
2022-11-28T04:59:33.740Z,100306.53
2022-11-28T05:02:05.864Z,100304.81
2022-11-28T05:04:36.910Z,100309.09
2022-11-28T05:07:08.440Z,100301.31
2022-11-28T05:09:39.626Z,100316.25
2022-11-28T05:12:09.982Z,100315.56
2022-11-28T05:14:41.091Z,100316.84
2022-11-28T05:17:13.503Z,100318.31
2022-11-28T05:19:43.327Z,100327.00
2022-11-28T05:22:13.268Z,100324.97
2022-11-28T05:24:44.526Z,100327.88
2022-11-28T05:27:14.417Z,100316.75
2022-11-28T05:29:51.883Z,100301.31
2022-11-28T05:32:22.084Z,100309.91
2022-11-28T05:34:51.843Z,100312.22
2022-11-28T05:37:21.600Z,100298.31
2022-11-28T05:39:52.750Z,100305.22
2022-11-28T05:42:22.737Z,100301.22
2022-11-28T05:44:56.168Z,100298.22
2022-11-28T05:47:26.225Z,100295.91
2022-11-28T05:49:56.013Z,100302.03
2022-11-28T05:52:26.024Z,100296.91
2022-11-28T05:54:57.296Z,100278.28
2022-11-28T05:57:27.143Z,100294.19
2022-11-28T05:59:57.909Z,100295.13
2022-11-28T06:02:27.764Z,100256.44
2022-11-28T06:04:57.607Z,100298.03
2022-11-28T06:07:27.503Z,100289.75
2022-11-28T06:09:58.712Z,100290.69
2022-11-28T06:12:29.128Z,100298.25
2022-11-28T06:14:58.891Z,100305.63
2022-11-28T06:17:29.008Z,100298.84
2022-11-28T06:19:58.757Z,100255.91
2022-11-28T06:22:28.685Z,100258.59
2022-11-28T06:24:59.863Z,100303.09
2022-11-28T06:27:30.007Z,100297.47
2022-11-28T06:29:59.746Z,100299.31
2022-11-28T06:32:29.558Z,100293.94
2022-11-28T06:34:59.628Z,100294.63
2022-11-28T06:37:29.502Z,100291.28
2022-11-28T06:40:00.661Z,100289.19
2022-11-28T06:42:30.851Z,100279.88
2022-11-28T06:45:00.667Z,100283.25
2022-11-28T06:47:30.499Z,100262.69
2022-11-28T06:50:00.248Z,100269.63
2022-11-28T06:52:30.031Z,100287.53
2022-11-28T06:55:01.158Z,100290.97
2022-11-28T06:57:32.748Z,100286.19
2022-11-28T07:00:02.625Z,100292.59
2022-11-28T07:02:32.566Z,100288.34
2022-11-28T07:05:02.635Z,100280.19
2022-11-28T07:07:32.710Z,100290.28
2022-11-28T07:10:03.996Z,100277.13
2022-11-28T07:12:34.712Z,100280.97
2022-11-28T07:15:08.733Z,100274.22
2022-11-28T07:17:39.206Z,100286.16
2022-11-28T07:20:10.161Z,100292.16
2022-11-28T07:22:40.074Z,100297.47
2022-11-28T07:25:11.737Z,100278.91
2022-11-28T07:27:41.907Z,100293.44
2022-11-28T07:30:12.124Z,100295.28
2022-11-28T07:32:42.240Z,100297.75
2022-11-28T07:35:12.536Z,100291.97
2022-11-28T07:37:42.333Z,100292.31
2022-11-28T07:40:18.529Z,100286.31
2022-11-28T07:42:49.128Z,100287.16
2022-11-28T07:45:19.218Z,100286.50
2022-11-28T07:47:49.614Z,100282.66
2022-11-28T07:50:19.540Z,100282.28
2022-11-28T07:52:51.363Z,100282.84
2022-11-28T07:55:22.482Z,100284.53
2022-11-28T07:57:52.578Z,100253.63
2022-11-28T08:00:23.725Z,100287.25
2022-11-28T08:02:53.505Z,100274.84
2022-11-28T08:05:23.312Z,100276.06
2022-11-28T08:07:53.154Z,100276.31
2022-11-28T08:10:24.308Z,100276.59
2022-11-28T08:12:54.860Z,100274.91
2022-11-28T08:15:31.663Z,100273.88
2022-11-28T08:18:01.649Z,100273.66
2022-11-28T08:20:31.463Z,100253.84
2022-11-28T08:23:01.377Z,100260.22
2022-11-28T08:25:32.791Z,100272.28
2022-11-28T08:28:02.742Z,100283.78
2022-11-28T08:30:32.597Z,100281.47
2022-11-28T08:33:02.366Z,100259.34
2022-11-28T08:35:32.214Z,100263.34
2022-11-28T08:38:02.326Z,100246.25
2022-11-28T08:40:33.641Z,100252.25
2022-11-28T08:43:03.434Z,100252.09
2022-11-28T08:45:33.444Z,100248.19
2022-11-28T08:48:03.397Z,100248.84
2022-11-28T08:50:33.199Z,100248.56
2022-11-28T08:53:07.743Z,100236.19
2022-11-28T08:55:41.997Z,100242.16
2022-11-28T08:58:12.316Z,100240.00
2022-11-28T09:00:43.437Z,100237.91
2022-11-28T09:03:15.677Z,100226.38
2022-11-28T09:05:47.224Z,100234.91
2022-11-28T09:08:18.795Z,100236.09
2022-11-28T09:10:50.159Z,100233.06
2022-11-28T09:13:20.403Z,100232.00
2022-11-28T09:15:52.752Z,100227.25
2022-11-28T09:18:23.873Z,100234.13
2022-11-28T09:20:58.718Z,100224.59
2022-11-28T09:23:29.219Z,100225.69
2022-11-28T09:26:00.770Z,100223.41
2022-11-28T09:28:30.602Z,100214.03
2022-11-28T09:31:02.598Z,100210.31
2022-11-28T09:33:32.796Z,100219.22
2022-11-28T09:36:06.477Z,100216.56
2022-11-28T09:38:37.036Z,100218.44
2022-11-28T09:41:33.749Z,100216.22
2022-11-28T09:44:10.550Z,100206.84
2022-11-28T09:46:41.726Z,100204.00
2022-11-28T09:49:23.199Z,100195.75
2022-11-28T09:51:58.068Z,100193.69
2022-11-28T09:54:38.405Z,100191.22
2022-11-28T09:57:16.696Z,100186.63
2022-11-28T09:59:47.585Z,100187.81
2022-11-28T10:02:29.367Z,100185.00
2022-11-28T10:05:11.259Z,100177.31
2022-11-28T10:07:55.256Z,100172.09
2022-11-28T10:10:37.019Z,100159.59
2022-11-28T10:13:15.014Z,100168.91
2022-11-28T10:15:56.947Z,100163.41
2022-11-28T10:18:38.266Z,100165.88
2022-11-28T10:21:27.976Z,100166.41
2022-11-28T10:24:00.996Z,100168.69
2022-11-28T10:26:36.926Z,100164.44
2022-11-28T10:29:17.420Z,100173.06
2022-11-28T10:31:50.774Z,100169.38
2022-11-28T10:34:27.788Z,100166.72
2022-11-28T10:37:02.027Z,100165.13
2022-11-28T10:39:32.024Z,100153.34
2022-11-28T10:42:14.003Z,100163.31
2022-11-28T10:45:04.461Z,100155.31
2022-11-28T10:47:51.314Z,100156.94
2022-11-28T10:50:32.488Z,100155.13
2022-11-28T10:53:10.018Z,100153.84
2022-11-28T10:55:51.487Z,100153.75
2022-11-28T10:58:25.008Z,100129.47
2022-11-28T11:00:58.867Z,100138.69
2022-11-28T11:03:31.124Z,100144.22
2022-11-28T11:06:01.241Z,100141.84
2022-11-28T11:08:35.146Z,100120.28
2022-11-28T11:11:06.767Z,100127.94
2022-11-28T11:13:58.256Z,100124.69
2022-11-28T11:16:48.852Z,100129.13
2022-11-28T11:19:26.516Z,100119.75
2022-11-28T11:22:01.792Z,100120.56
2022-11-28T11:24:31.733Z,100121.44
2022-11-28T11:27:08.221Z,100125.47
2022-11-28T11:29:40.581Z,100120.41
2022-11-28T11:32:21.829Z,100114.38
2022-11-28T11:34:52.174Z,100108.16
2022-11-28T11:37:33.133Z,100111.47
2022-11-28T11:40:05.361Z,100113.44
2022-11-28T11:42:35.302Z,100112.66
2022-11-28T11:45:27.525Z,100113.06
2022-11-28T11:47:59.490Z,100110.72
2022-11-28T11:50:32.101Z,100108.22
2022-11-28T11:53:04.720Z,100099.97
2022-11-28T11:55:41.310Z,100107.63
2022-11-28T11:58:14.838Z,100104.50
2022-11-28T12:00:45.803Z,100094.41
2022-11-28T12:03:27.021Z,100103.34
2022-11-28T12:06:13.665Z,100105.75
2022-11-28T12:08:50.498Z,100082.63
2022-11-28T12:11:26.394Z,100100.78
2022-11-28T12:14:00.090Z,100104.88
2022-11-28T12:16:49.995Z,100102.75
2022-11-28T12:19:29.412Z,100095.00
2022-11-28T12:22:16.582Z,100109.81
2022-11-28T12:24:55.542Z,100096.94
2022-11-28T12:27:35.867Z,100100.38
2022-11-28T12:30:22.592Z,100102.59
2022-11-28T12:33:06.634Z,100105.91
2022-11-28T12:35:41.422Z,100087.31
2022-11-28T12:38:28.529Z,100109.50
2022-11-28T12:41:12.569Z,100115.53
2022-11-28T12:43:58.569Z,100125.19
2022-11-28T12:46:37.739Z,100099.31
2022-11-28T12:49:17.477Z,100106.25
2022-11-28T12:52:01.123Z,100080.16
2022-11-28T12:54:58.459Z,100101.75
2022-11-28T12:57:34.967Z,100098.94
2022-11-28T13:00:13.005Z,100096.59
2022-11-28T13:02:57.263Z,100093.81
2022-11-28T13:05:36.844Z,100101.91
2022-11-28T13:08:44.765Z,100101.16
2022-11-28T13:11:31.651Z,100107.13
2022-11-28T13:14:10.839Z,100104.41
2022-11-28T13:16:46.987Z,100113.44
2022-11-28T13:19:32.363Z,100106.59
2022-11-28T13:22:11.291Z,100105.06
2022-11-28T13:24:49.456Z,100103.22
2022-11-28T13:27:32.574Z,100096.38
2022-11-28T13:30:14.261Z,100096.69
2022-11-28T13:32:48.222Z,100086.72
2022-11-28T13:35:20.429Z,100100.28
2022-11-28T13:40:55.235Z,100109.69
2022-11-28T13:43:37.944Z,100107.97
2022-11-28T13:46:09.421Z,100087.06
2022-11-28T13:52:31.809Z,100104.13
2022-11-28T13:55:01.708Z,100102.16
2022-11-28T13:57:39.857Z,100113.22
2022-11-28T14:00:23.140Z,100112.38
2022-11-28T14:02:55.695Z,100097.50
2022-11-28T14:05:30.149Z,100104.34
2022-11-28T14:08:00.443Z,100125.31
2022-11-28T14:10:50.855Z,100099.69
2022-11-28T14:13:44.067Z,100107.53
2022-11-28T14:16:26.975Z,100121.19
2022-11-28T14:19:05.178Z,100122.03
2022-11-28T14:21:48.721Z,100116.75
2022-11-28T14:24:28.851Z,100116.75
2022-11-28T14:27:02.053Z,100115.81
2022-11-28T14:29:38.318Z,100113.69
2022-11-28T14:32:30.048Z,100122.28
2022-11-28T14:35:01.291Z,100122.66
2022-11-28T14:37:38.114Z,100098.91
2022-11-28T14:40:46.891Z,100116.91
2022-11-28T14:43:27.155Z,100122.34
2022-11-28T14:46:27.860Z,100113.13
2022-11-28T14:49:23.381Z,100114.75
2022-11-28T14:52:39.074Z,100103.75
2022-11-28T14:55:20.652Z,100104.28
2022-11-28T14:58:00.727Z,100103.75
2022-11-28T15:00:39.626Z,100101.25
2022-11-28T15:03:26.378Z,100104.81
2022-11-28T15:06:02.306Z,100106.31
2022-11-28T15:08:58.944Z,100099.84
2022-11-28T15:12:03.350Z,100105.75
2022-11-28T15:14:34.587Z,100102.91
2022-11-28T15:17:11.810Z,100107.63
2022-11-28T15:19:46.299Z,100102.97
2022-11-28T15:22:34.026Z,100100.19
2022-11-28T15:25:03.760Z,100106.22
2022-11-28T15:27:34.326Z,100105.13
2022-11-28T15:30:04.709Z,100101.66
2022-11-28T15:32:36.002Z,100101.56
2022-11-28T15:35:12.586Z,100104.13
2022-11-28T15:37:49.597Z,100113.34
2022-11-28T15:40:22.387Z,100107.44
2022-11-28T15:42:52.320Z,100111.78
2022-11-28T15:45:26.299Z,100103.75
2022-11-28T15:47:58.419Z,100105.97
2022-11-28T15:50:30.057Z,100104.97
2022-11-28T15:53:01.188Z,100107.44
2022-11-28T15:55:33.367Z,100105.81
2022-11-28T15:58:19.169Z,100109.91
2022-11-28T16:00:51.537Z,100113.19
2022-11-28T16:03:27.217Z,100106.34
2022-11-28T16:05:58.811Z,100103.16
2022-11-28T16:08:31.209Z,100096.38
2022-11-28T16:11:02.737Z,100118.28
2022-11-28T16:13:34.550Z,100110.72
2022-11-28T16:16:12.437Z,100112.47
2022-11-28T16:18:47.557Z,100106.50
2022-11-28T16:21:17.417Z,100106.69
2022-11-28T16:23:47.621Z,100099.34
2022-11-28T16:26:25.703Z,100095.28
2022-11-28T16:29:02.231Z,100092.97
2022-11-28T16:31:32.238Z,100092.38
2022-11-28T16:34:03.943Z,100097.66
2022-11-28T16:36:37.723Z,100091.34
2022-11-28T16:39:09.332Z,100102.66
2022-11-28T16:41:41.434Z,100101.66
2022-11-28T16:44:14.602Z,100081.97
2022-11-28T16:46:51.931Z,100102.25
2022-11-28T16:49:35.078Z,100083.84
2022-11-28T16:52:45.753Z,100102.69
2022-11-28T16:55:44.685Z,100096.28
2022-11-28T16:58:17.661Z,100100.84
2022-11-28T17:01:08.895Z,100100.00
2022-11-28T17:03:50.669Z,100102.56
2022-11-28T17:06:25.510Z,100097.13
2022-11-28T17:08:55.720Z,100102.25
2022-11-28T17:11:30.775Z,100097.19
2022-11-28T17:14:02.889Z,100097.44
2022-11-28T17:16:35.995Z,100095.72
2022-11-28T17:19:06.503Z,100099.75
2022-11-28T17:21:40.393Z,100104.97
2022-11-28T17:24:17.159Z,100102.91
2022-11-28T17:26:47.152Z,100110.50
2022-11-28T17:29:17.820Z,100110.75
2022-11-28T17:31:48.571Z,100106.06
2022-11-28T17:34:20.589Z,100094.25
2022-11-28T17:36:52.711Z,100105.75
2022-11-28T17:39:22.768Z,100104.44
2022-11-28T17:41:52.870Z,100107.84
2022-11-28T17:44:24.475Z,100104.50
2022-11-28T17:46:55.951Z,100103.97
2022-11-28T17:49:26.497Z,100104.97
2022-11-28T17:51:58.306Z,100107.53
2022-11-28T17:54:28.415Z,100109.78
2022-11-28T17:56:58.917Z,100104.50
2022-11-28T17:59:29.377Z,100102.91
2022-11-28T18:01:59.249Z,100105.47
2022-11-28T18:04:28.962Z,100112.44
2022-11-28T18:07:00.244Z,100113.47
2022-11-28T18:09:30.369Z,100112.84
2022-11-28T18:12:00.365Z,100110.75
2022-11-28T18:14:35.214Z,100103.75
2022-11-28T18:17:08.658Z,100108.34
2022-11-28T18:19:38.334Z,100110.19
2022-11-28T18:22:09.549Z,100101.81
2022-11-28T18:24:39.298Z,100101.13
2022-11-28T18:27:09.376Z,100095.06
2022-11-28T18:29:39.183Z,100096.94
2022-11-28T18:32:09.017Z,100098.41
2022-11-28T18:34:38.860Z,100089.41
2022-11-28T18:37:10.768Z,100092.88
2022-11-28T18:39:40.661Z,100101.13
2022-11-28T18:42:10.563Z,100095.22
2022-11-28T18:44:40.355Z,100092.88
2022-11-28T18:47:11.240Z,100088.50
2022-11-28T18:49:41.375Z,100100.34
2022-11-28T18:52:12.833Z,100090.97
2022-11-28T18:54:42.727Z,100096.44
2022-11-28T18:57:12.661Z,100096.63
2022-11-28T18:59:49.914Z,100104.59
2022-11-28T19:02:23.034Z,100097.09
2022-11-28T19:04:53.252Z,100099.72
2022-11-28T19:07:24.870Z,100083.34
2022-11-28T19:09:54.684Z,100101.59
2022-11-28T19:12:25.097Z,100104.78
2022-11-28T19:15:01.578Z,100099.88
2022-11-28T19:17:32.606Z,100094.22
2022-11-28T19:20:02.509Z,100087.28
2022-11-28T19:22:35.961Z,100086.22
2022-11-28T19:25:06.681Z,100090.50
2022-11-28T19:27:36.548Z,100085.13
2022-11-28T19:30:07.792Z,100085.59
2022-11-28T19:32:37.617Z,100075.66
2022-11-28T19:35:08.608Z,100092.13
2022-11-28T19:37:41.585Z,100088.53
2022-11-28T19:40:12.400Z,100090.97
2022-11-28T19:42:42.710Z,100098.00
2022-11-28T19:45:12.850Z,100097.31
2022-11-28T19:47:42.837Z,100098.25
2022-11-28T19:50:13.311Z,100103.00
2022-11-28T19:52:44.972Z,100101.44
2022-11-28T19:55:14.836Z,100104.38
2022-11-28T19:57:44.671Z,100100.81
2022-11-28T20:00:15.976Z,100090.25
2022-11-28T20:02:46.001Z,100086.94
2022-11-28T20:05:16.073Z,100087.44
2022-11-28T20:07:47.726Z,100076.81
2022-11-28T20:10:17.889Z,100095.28
2022-11-28T20:12:48.752Z,100092.88
2022-11-28T20:15:19.126Z,100089.66
2022-11-28T20:17:49.766Z,100093.06
2022-11-28T20:20:20.292Z,100090.50
2022-11-28T20:22:51.580Z,100085.97
2022-11-28T20:25:21.510Z,100083.97
2022-11-28T20:27:51.376Z,100084.44
2022-11-28T20:30:21.615Z,100075.28
2022-11-28T20:32:51.720Z,100040.34
2022-11-28T20:35:23.285Z,100079.25
2022-11-28T20:37:54.458Z,100077.38
2022-11-28T20:40:24.334Z,100083.22
2022-11-28T20:42:54.407Z,100078.84
2022-11-28T20:45:24.188Z,100078.13
2022-11-28T20:47:53.994Z,100070.38
2022-11-28T20:50:24.173Z,100064.00
2022-11-28T20:52:55.429Z,100071.16
2022-11-28T20:55:25.237Z,100064.09
2022-11-28T20:57:55.115Z,100073.09
2022-11-28T21:00:26.741Z,100046.31
2022-11-28T21:02:56.820Z,100056.94
2022-11-28T21:05:26.856Z,100058.50
2022-11-28T21:07:58.198Z,100058.13
2022-11-28T21:10:28.117Z,100056.94
2022-11-28T21:12:58.285Z,100054.47
2022-11-28T21:15:28.888Z,100051.06
2022-11-28T21:17:58.818Z,100044.31
2022-11-28T21:20:28.615Z,100049.25
2022-11-28T21:22:59.814Z,100053.78
2022-11-28T21:25:29.760Z,100061.16
2022-11-28T21:27:59.542Z,100055.72
2022-11-28T21:30:29.485Z,100062.47
2022-11-28T21:33:00.100Z,100058.25
2022-11-28T21:35:30.083Z,100049.44
2022-11-28T21:38:02.072Z,100054.88
2022-11-28T21:40:31.902Z,100050.44
2022-11-28T21:43:01.815Z,100047.94
2022-11-28T21:45:31.716Z,100050.00
2022-11-28T21:48:01.481Z,100045.78
2022-11-28T21:50:31.273Z,100046.63
2022-11-28T21:53:02.363Z,100047.56
2022-11-28T21:55:32.067Z,100052.22
2022-11-28T21:58:01.864Z,100043.06
2022-11-28T22:00:57.932Z,100040.97
2022-11-28T22:03:22.296Z,100043.91
2022-11-28T22:05:53.142Z,100035.94
2022-11-28T22:08:24.199Z,100037.31
2022-11-28T22:10:54.007Z,100035.47
2022-11-28T22:13:24.519Z,100037.88
2022-11-28T22:15:55.062Z,100038.03
2022-11-28T22:18:25.393Z,100036.41
2022-11-28T22:21:02.342Z,100029.25
2022-11-28T22:23:35.245Z,100025.06
2022-11-28T22:26:05.235Z,100029.66
2022-11-28T22:28:37.683Z,100034.75
2022-11-28T22:31:08.751Z,100029.16
2022-11-28T22:33:39.197Z,100030.56
2022-11-28T22:36:11.966Z,100027.69
2022-11-28T22:38:44.533Z,100021.16
2022-11-28T22:41:19.816Z,99978.88
2022-11-28T22:43:55.818Z,100009.88
2022-11-28T22:46:25.644Z,100012.25
2022-11-28T22:48:55.346Z,100008.78
2022-11-28T22:51:26.618Z,100003.66
2022-11-28T22:54:00.214Z,100003.28
2022-11-28T22:56:30.849Z,100002.72
2022-11-28T22:59:01.508Z,100002.09
2022-11-28T23:01:32.610Z,100007.22
2022-11-28T23:04:02.764Z,100002.25
2022-11-28T23:06:35.092Z,99999.84
2022-11-28T23:09:08.748Z,99992.41
2022-11-28T23:11:40.227Z,99978.22
2022-11-28T23:14:14.071Z,99983.41
2022-11-28T23:16:45.464Z,99989.53
2022-11-28T23:19:18.167Z,99989.09
2022-11-28T23:21:50.514Z,99995.19
2022-11-28T23:24:23.628Z,99984.56
2022-11-28T23:26:54.168Z,99969.75
2022-11-28T23:29:24.045Z,99972.63
2022-11-28T23:31:53.925Z,99977.75
2022-11-28T23:34:23.914Z,99978.53
2022-11-28T23:36:53.657Z,99969.69
2022-11-28T23:39:25.159Z,99961.91
2022-11-28T23:41:55.529Z,99963.00
2022-11-28T23:44:25.427Z,99955.66
2022-11-28T23:46:55.344Z,99948.38
2022-11-28T23:49:25.082Z,99945.03
2022-11-28T23:51:54.856Z,99947.75
2022-11-28T23:54:25.887Z,99952.47
2022-11-28T23:56:55.852Z,99945.94
2022-11-28T23:59:25.731Z,99956.38
